Historyczne dane pomiarowe

Dodano dane terminowe – wersja testowa.

Dane z okresu 1951-2019

Wersja bazy: 1.34 [2019-03-16, lista zmian], aktualizacja planowana na 2019-04-15

Dane meteo z obszaru Polski uzyskane na podstawie danych udostępnionych przez Instytut Meteorologii i Gospodarki Wodnej – Państwowy Instytut Badawczy.

 

Wybierz Datę:    

       

TemperaturaWilgotnośćWiatrCiśnienieOpadyŚniegCzas trwania zjawisk
 Stacja t tx tn tng RH VA  wxwx mslp ppp RRR   cm mm wxwxwxwxwxwxwx
1961-08-14 12.9 19.9 7.6--- 4.7 0.7---- 0.0------------
1961-08-13 12.9 18.8 9.7--- 4.3 2.3---- 0.0------------
1961-08-12 17.6 21.4 13.7--- 6.3 0.0---- 0.0------------
1961-08-11 17.0 21.7 11.4--- 5.7 0.7---- 7.3------------
1961-08-10 18.3 23.2 14.9--- 7.0 0.7---- 3.8------------
1961-08-09 17.7 26.5 12.7--- 2.0 0.3---- 0.3------------
1961-08-08 14.9 20.9 12.7--- 4.7 1.0---- 0.0------------
1961-08-07 17.7 22.4 15.7--- 6.3 0.7---- 0.2------------
1961-08-06 20.5 28.3 11.1--- 5.0 1.7---- 3.5------------
1961-08-05 17.1 21.5 13.5--- 5.0 2.0---- 0.0------------
1961-08-04 15.3 19.3 9.2--- 7.7 1.3---- 0.0------------
1961-08-03 16.8 21.8 12.0--- 5.3 0.7---- 0.0------------
1961-08-02 16.6 23.0 9.8--- 4.3 0.7---- 0.0------------
1961-08-01 13.1 15.5 12.2--- 8.0 1.3---- 0.3------------
1961-07-31 16.1 18.9 13.8--- 7.3 5.0---- 0.0------------
1961-07-30 15.0 16.3 10.7--- 8.0 1.7---- 26.8------------
1961-07-29 14.4 19.2 12.6--- 8.0 0.7---- 4.0------------
1961-07-28 16.4 19.3 13.7--- 8.0 2.3---- 18.4------------
1961-07-27 18.2 23.0 14.0--- 8.0 2.3---- 0.2------------
1961-07-26 15.3 17.1 11.7--- 8.0 3.3---- 1.6------------
1961-07-25 13.4 18.4 9.0--- 8.0 2.0---- 0.0------------
1961-07-24 14.9 19.8 11.9--- 7.7 1.0---- 0.3------------
1961-07-23 14.0 17.9 12.7--- 8.0 2.0---- 0.2------------
1961-07-22 14.5 18.6 13.2--- 7.7 0.7---- 13.6------------
1961-07-21 15.4 20.5 8.9--- 4.7 1.3---- 2.2------------
1961-07-20 15.7 22.3 7.3--- 4.3 0.3---- 0.0------------
1961-07-19 15.0 22.0 9.4--- 6.3 0.0---- 0.7------------
1961-07-18 14.3 18.3 12.2--- 5.7 1.3---- 0.0------------
1961-07-17 15.7 22.0 12.0--- 7.0 1.7---- 1.7------------
1961-07-16 16.7 21.4 7.4--- 6.7 1.7---- 37.4------------
1961-07-15 16.8 22.8 7.9--- 5.7 0.7---- 0.0------------
1961-07-14 15.4 21.5 13.2--- 6.3 4.0---- 0.0------------
1961-07-13 17.0 26.2 7.8--- 1.7 0.7---- 0.0------------
1961-07-12 15.0 18.3 5.5--- 7.3 0.7---- 2.3------------
1961-07-11 13.4 19.3 8.4--- 3.7 2.0---- 0.0------------
1961-07-10 16.5 20.3 10.1--- 7.7 3.7---- 5.6------------
1961-07-09 17.1 22.8 9.9--- 4.7 1.0---- 2.4------------
1961-07-08 15.4 18.8 10.7--- 3.3 2.3---- 0.0------------
1961-07-07 13.1 18.1 8.6--- 2.0 1.7---- 0.0------------
1961-07-06 14.3 17.9 4.9--- 4.0 2.0---- 0.0------------
1961-07-05 14.1 18.5 7.6--- 4.0 2.3---- 0.0------------
1961-07-04 18.0 24.3 14.6--- 6.7 2.7---- 1.8------------
1961-07-03 19.8 28.4 8.3--- 1.0 1.0---- 0.9------------
1961-07-02 20.6 29.4 6.7--- 0.0 1.3---- 0.0------------
1961-07-01 17.1 23.2 7.5--- 5.7 2.0---- 0.0------------
1961-06-30 16.6 22.1 8.8--- 1.7 1.7---- 0.0------------
1961-06-29 14.2 17.9 7.9--- 7.3 1.0---- 1.7------------
1961-06-28 14.0 21.1 10.2--- 7.0 1.3---- 23.2------------
1961-06-27 21.3 27.8 9.7--- 4.7 0.0---- 0.0------------
1961-06-26 18.4 23.8 7.0--- 4.0 0.3---- 0.0------------
1961-06-25 18.9 26.4 12.8--- 3.7 4.3---- 0.0------------
1961-06-24 16.3 21.1 10.8--- 4.0 1.7---- 0.0------------
1961-06-23 16.5 23.4 11.2--- 7.0 1.0---- 0.3------------
1961-06-22 14.2 20.3 9.3--- 4.3 1.3---- 12.8------------
1961-06-21 16.8 21.0 4.3--- 5.3 6.7---- 3.9------------
1961-06-20 12.4 18.3 8.8--- 4.0 1.7---- 0.0------------
1961-06-19 15.5 20.6 13.3--- 5.0 1.3---- 0.0------------
1961-06-18 19.2 24.3 12.4--- 5.0 2.3---- 0.0------------
1961-06-17 14.1 20.5 11.2--- 7.3 2.3---- 0.5------------
1961-06-16 12.8 16.3 11.7--- 7.7 3.7---- 10.4------------
398.5 ms

 

Źródłem pochodzenia danych jest Instytut Meteorologii i Gospodarki Wodnej – Państwowy Instytut Badawczy. Dane Instytutu Meteorologii i Gospodarki Wodnej – Państwowego Instytutu Badawczego zostały przetworzone.

Dane źródłowe można odnaleźć na stronie https://dane.imgw.pl